sensor_id;sensor_type;location;lat;lon;timestamp;P1;durP1;ratioP1;P2;durP2;ratioP2
57567;SDS011;43403;51.948;5.922;2022-12-20T00:01:09;4.70;;;2.97;;
57567;SDS011;43403;51.948;5.922;2022-12-20T00:03:36;5.78;;;2.55;;
57567;SDS011;43403;51.948;5.922;2022-12-20T00:06:03;5.05;;;2.33;;
57567;SDS011;43403;51.948;5.922;2022-12-20T00:08:31;3.22;;;2.25;;
57567;SDS011;43403;51.948;5.922;2022-12-20T00:11:00;7.15;;;2.97;;
57567;SDS011;43403;51.948;5.922;2022-12-20T00:13:28;5.60;;;2.72;;
57567;SDS011;43403;51.948;5.922;2022-12-20T00:16:05;3.30;;;2.22;;
57567;SDS011;43403;51.948;5.922;2022-12-20T00:18:36;4.38;;;2.60;;
57567;SDS011;43403;51.948;5.922;2022-12-20T00:21:04;4.32;;;2.40;;
57567;SDS011;43403;51.948;5.922;2022-12-20T00:23:33;4.28;;;2.60;;
57567;SDS011;43403;51.948;5.922;2022-12-20T00:26:00;8.07;;;3.28;;
57567;SDS011;43403;51.948;5.922;2022-12-20T00:28:28;5.18;;;2.53;;
57567;SDS011;43403;51.948;5.922;2022-12-20T00:30:57;8.18;;;2.55;;
57567;SDS011;43403;51.948;5.922;2022-12-20T00:33:23;4.35;;;2.55;;
57567;SDS011;43403;51.948;5.922;2022-12-20T00:35:50;6.15;;;2.30;;
57567;SDS011;43403;51.948;5.922;2022-12-20T00:38:16;4.00;;;2.20;;
57567;SDS011;43403;51.948;5.922;2022-12-20T00:40:43;5.60;;;2.30;;
57567;SDS011;43403;51.948;5.922;2022-12-20T00:43:09;4.35;;;2.50;;
57567;SDS011;43403;51.948;5.922;2022-12-20T00:45:36;3.30;;;2.20;;
57567;SDS011;43403;51.948;5.922;2022-12-20T00:48:02;5.10;;;2.08;;
57567;SDS011;43403;51.948;5.922;2022-12-20T00:50:29;6.35;;;2.35;;
57567;SDS011;43403;51.948;5.922;2022-12-20T00:52:55;3.30;;;1.98;;
57567;SDS011;43403;51.948;5.922;2022-12-20T00:55:21;6.40;;;2.25;;
57567;SDS011;43403;51.948;5.922;2022-12-20T00:57:48;3.83;;;2.25;;
57567;SDS011;43403;51.948;5.922;2022-12-20T01:00:14;5.22;;;2.28;;
57567;SDS011;43403;51.948;5.922;2022-12-20T01:02:41;3.95;;;2.17;;
57567;SDS011;43403;51.948;5.922;2022-12-20T01:05:07;5.78;;;2.15;;
57567;SDS011;43403;51.948;5.922;2022-12-20T01:07:34;3.17;;;2.17;;
57567;SDS011;43403;51.948;5.922;2022-12-20T01:10:00;3.70;;;2.00;;
57567;SDS011;43403;51.948;5.922;2022-12-20T01:12:27;5.45;;;2.05;;
57567;SDS011;43403;51.948;5.922;2022-12-20T01:14:53;3.35;;;2.17;;
57567;SDS011;43403;51.948;5.922;2022-12-20T01:17:19;3.30;;;2.00;;
57567;SDS011;43403;51.948;5.922;2022-12-20T01:19:46;3.80;;;2.20;;
57567;SDS011;43403;51.948;5.922;2022-12-20T01:22:12;4.57;;;2.22;;
57567;SDS011;43403;51.948;5.922;2022-12-20T01:24:38;4.60;;;2.38;;
57567;SDS011;43403;51.948;5.922;2022-12-20T01:27:05;5.13;;;2.40;;
57567;SDS011;43403;51.948;5.922;2022-12-20T01:29:31;4.82;;;2.08;;
57567;SDS011;43403;51.948;5.922;2022-12-20T01:31:58;3.25;;;1.90;;
57567;SDS011;43403;51.948;5.922;2022-12-20T01:34:24;5.03;;;2.28;;
57567;SDS011;43403;51.948;5.922;2022-12-20T01:36:50;3.70;;;2.15;;
57567;SDS011;43403;51.948;5.922;2022-12-20T01:39:17;3.40;;;2.03;;
57567;SDS011;43403;51.948;5.922;2022-12-20T01:41:44;2.92;;;2.15;;
57567;SDS011;43403;51.948;5.922;2022-12-20T01:46:44;5.05;;;2.25;;
57567;SDS011;43403;51.948;5.922;2022-12-20T01:51:46;3.55;;;2.28;;
57567;SDS011;43403;51.948;5.922;2022-12-20T01:54:20;5.05;;;2.42;;
57567;SDS011;43403;51.948;5.922;2022-12-20T01:56:51;5.90;;;2.30;;
57567;SDS011;43403;51.948;5.922;2022-12-20T01:59:22;4.03;;;2.45;;
57567;SDS011;43403;51.948;5.922;2022-12-20T02:01:50;3.80;;;2.00;;
57567;SDS011;43403;51.948;5.922;2022-12-20T02:04:17;3.70;;;2.10;;
57567;SDS011;43403;51.948;5.922;2022-12-20T02:06:43;4.93;;;2.22;;
57567;SDS011;43403;51.948;5.922;2022-12-20T02:09:10;4.65;;;2.35;;
57567;SDS011;43403;51.948;5.922;2022-12-20T02:11:44;4.88;;;2.58;;
57567;SDS011;43403;51.948;5.922;2022-12-20T02:14:38;5.15;;;2.63;;
57567;SDS011;43403;51.948;5.922;2022-12-20T02:20:14;5.57;;;2.92;;
57567;SDS011;43403;51.948;5.922;2022-12-20T02:29:15;5.13;;;2.60;;
57567;SDS011;43403;51.948;5.922;2022-12-20T02:34:22;5.72;;;2.65;;
57567;SDS011;43403;51.948;5.922;2022-12-20T02:36:51;5.43;;;2.78;;
57567;SDS011;43403;51.948;5.922;2022-12-20T02:39:18;7.22;;;3.08;;
57567;SDS011;43403;51.948;5.922;2022-12-20T02:41:47;4.57;;;2.67;;
57567;SDS011;43403;51.948;5.922;2022-12-20T02:44:18;5.82;;;2.90;;
57567;SDS011;43403;51.948;5.922;2022-12-20T02:47:09;8.75;;;3.10;;
57567;SDS011;43403;51.948;5.922;2022-12-20T02:49:40;3.45;;;2.60;;
57567;SDS011;43403;51.948;5.922;2022-12-20T02:52:10;5.05;;;3.05;;
57567;SDS011;43403;51.948;5.922;2022-12-20T02:54:39;5.35;;;2.83;;
57567;SDS011;43403;51.948;5.922;2022-12-20T02:59:56;7.40;;;3.85;;
57567;SDS011;43403;51.948;5.922;2022-12-20T03:02:27;4.60;;;3.17;;
57567;SDS011;43403;51.948;5.922;2022-12-20T03:04:54;7.88;;;3.17;;
57567;SDS011;43403;51.948;5.922;2022-12-20T03:09:49;7.25;;;3.00;;
57567;SDS011;43403;51.948;5.922;2022-12-20T03:12:16;3.85;;;2.58;;
57567;SDS011;43403;51.948;5.922;2022-12-20T03:14:42;5.13;;;2.95;;
57567;SDS011;43403;51.948;5.922;2022-12-20T03:17:09;5.35;;;2.88;;
57567;SDS011;43403;51.948;5.922;2022-12-20T03:19:36;5.93;;;2.70;;
57567;SDS011;43403;51.948;5.922;2022-12-20T03:22:02;4.22;;;2.75;;
57567;SDS011;43403;51.948;5.922;2022-12-20T03:24:29;5.20;;;2.63;;
57567;SDS011;43403;51.948;5.922;2022-12-20T03:26:57;4.90;;;2.55;;
57567;SDS011;43403;51.948;5.922;2022-12-20T03:29:24;5.15;;;2.90;;
57567;SDS011;43403;51.948;5.922;2022-12-20T03:31:50;5.10;;;2.70;;
57567;SDS011;43403;51.948;5.922;2022-12-20T03:34:16;5.20;;;2.40;;
57567;SDS011;43403;51.948;5.922;2022-12-20T03:36:43;4.35;;;2.58;;
57567;SDS011;43403;51.948;5.922;2022-12-20T03:39:09;5.68;;;2.60;;
57567;SDS011;43403;51.948;5.922;2022-12-20T03:41:36;4.60;;;2.65;;
57567;SDS011;43403;51.948;5.922;2022-12-20T03:44:02;4.70;;;2.28;;
57567;SDS011;43403;51.948;5.922;2022-12-20T03:46:29;6.32;;;2.50;;
57567;SDS011;43403;51.948;5.922;2022-12-20T03:48:55;3.65;;;2.40;;
57567;SDS011;43403;51.948;5.922;2022-12-20T03:51:22;3.67;;;2.55;;
57567;SDS011;43403;51.948;5.922;2022-12-20T03:53:48;2.75;;;2.10;;
57567;SDS011;43403;51.948;5.922;2022-12-20T03:56:14;4.00;;;2.33;;
57567;SDS011;43403;51.948;5.922;2022-12-20T03:58:41;4.75;;;2.50;;
57567;SDS011;43403;51.948;5.922;2022-12-20T04:01:18;3.90;;;2.28;;
57567;SDS011;43403;51.948;5.922;2022-12-20T04:03:54;5.07;;;2.60;;
57567;SDS011;43403;51.948;5.922;2022-12-20T04:06:22;5.40;;;2.40;;
57567;SDS011;43403;51.948;5.922;2022-12-20T04:08:48;5.30;;;2.50;;
57567;SDS011;43403;51.948;5.922;2022-12-20T04:11:15;4.18;;;2.42;;
57567;SDS011;43403;51.948;5.922;2022-12-20T04:13:42;4.88;;;2.30;;
57567;SDS011;43403;51.948;5.922;2022-12-20T04:16:10;8.15;;;2.50;;
57567;SDS011;43403;51.948;5.922;2022-12-20T04:18:37;6.88;;;3.00;;
57567;SDS011;43403;51.948;5.922;2022-12-20T04:21:03;5.93;;;2.80;;
57567;SDS011;43403;51.948;5.922;2022-12-20T04:23:35;5.20;;;2.75;;
57567;SDS011;43403;51.948;5.922;2022-12-20T04:26:03;4.38;;;2.25;;
57567;SDS011;43403;51.948;5.922;2022-12-20T04:28:32;5.25;;;2.50;;
57567;SDS011;43403;51.948;5.922;2022-12-20T04:30:59;6.07;;;2.78;;
57567;SDS011;43403;51.948;5.922;2022-12-20T04:33:27;6.20;;;2.58;;
57567;SDS011;43403;51.948;5.922;2022-12-20T04:35:54;6.38;;;2.65;;
57567;SDS011;43403;51.948;5.922;2022-12-20T04:38:21;4.97;;;2.70;;
57567;SDS011;43403;51.948;5.922;2022-12-20T04:40:48;3.50;;;2.25;;
57567;SDS011;43403;51.948;5.922;2022-12-20T04:43:16;3.97;;;2.47;;
57567;SDS011;43403;51.948;5.922;2022-12-20T04:45:43;5.20;;;2.20;;
57567;SDS011;43403;51.948;5.922;2022-12-20T04:48:10;6.68;;;2.65;;
57567;SDS011;43403;51.948;5.922;2022-12-20T04:50:57;4.20;;;2.33;;
57567;SDS011;43403;51.948;5.922;2022-12-20T04:53:23;5.47;;;2.15;;
57567;SDS011;43403;51.948;5.922;2022-12-20T04:56:08;9.82;;;3.35;;
57567;SDS011;43403;51.948;5.922;2022-12-20T04:58:34;4.03;;;2.15;;
57567;SDS011;43403;51.948;5.922;2022-12-20T05:01:01;4.10;;;2.22;;
57567;SDS011;43403;51.948;5.922;2022-12-20T05:03:27;5.07;;;2.28;;
57567;SDS011;43403;51.948;5.922;2022-12-20T05:05:54;4.47;;;2.58;;
57567;SDS011;43403;51.948;5.922;2022-12-20T05:08:20;5.75;;;2.17;;
57567;SDS011;43403;51.948;5.922;2022-12-20T05:10:46;5.03;;;2.50;;
57567;SDS011;43403;51.948;5.922;2022-12-20T05:13:14;3.60;;;2.05;;
57567;SDS011;43403;51.948;5.922;2022-12-20T05:15:41;4.28;;;2.25;;
57567;SDS011;43403;51.948;5.922;2022-12-20T05:18:08;2.85;;;2.13;;
57567;SDS011;43403;51.948;5.922;2022-12-20T05:20:35;5.72;;;2.90;;
57567;SDS011;43403;51.948;5.922;2022-12-20T05:23:02;4.25;;;2.35;;
57567;SDS011;43403;51.948;5.922;2022-12-20T05:25:48;5.35;;;2.20;;
57567;SDS011;43403;51.948;5.922;2022-12-20T05:28:27;3.88;;;2.35;;
57567;SDS011;43403;51.948;5.922;2022-12-20T05:30:54;2.75;;;2.35;;
57567;SDS011;43403;51.948;5.922;2022-12-20T05:33:20;4.97;;;2.55;;
57567;SDS011;43403;51.948;5.922;2022-12-20T05:35:47;9.23;;;2.65;;
57567;SDS011;43403;51.948;5.922;2022-12-20T05:38:13;5.93;;;2.70;;
57567;SDS011;43403;51.948;5.922;2022-12-20T05:40:40;4.28;;;2.72;;
57567;SDS011;43403;51.948;5.922;2022-12-20T05:43:06;4.90;;;2.40;;
57567;SDS011;43403;51.948;5.922;2022-12-20T05:45:33;5.38;;;2.67;;
57567;SDS011;43403;51.948;5.922;2022-12-20T05:48:00;4.45;;;2.35;;
57567;SDS011;43403;51.948;5.922;2022-12-20T05:50:27;6.82;;;2.83;;
57567;SDS011;43403;51.948;5.922;2022-12-20T05:52:53;7.35;;;2.78;;
57567;SDS011;43403;51.948;5.922;2022-12-20T05:55:20;6.15;;;2.63;;
57567;SDS011;43403;51.948;5.922;2022-12-20T05:57:46;4.75;;;2.42;;
57567;SDS011;43403;51.948;5.922;2022-12-20T06:00:14;3.83;;;2.33;;
57567;SDS011;43403;51.948;5.922;2022-12-20T06:02:40;4.78;;;2.83;;
57567;SDS011;43403;51.948;5.922;2022-12-20T06:05:07;5.82;;;2.60;;
57567;SDS011;43403;51.948;5.922;2022-12-20T06:07:34;3.58;;;2.15;;
57567;SDS011;43403;51.948;5.922;2022-12-20T06:10:01;6.38;;;2.85;;
57567;SDS011;43403;51.948;5.922;2022-12-20T06:12:27;4.97;;;2.60;;
57567;SDS011;43403;51.948;5.922;2022-12-20T06:14:53;7.22;;;2.25;;
57567;SDS011;43403;51.948;5.922;2022-12-20T06:17:20;5.68;;;2.47;;
57567;SDS011;43403;51.948;5.922;2022-12-20T06:19:47;5.78;;;2.75;;
57567;SDS011;43403;51.948;5.922;2022-12-20T06:22:13;7.22;;;2.75;;
57567;SDS011;43403;51.948;5.922;2022-12-20T06:24:39;5.60;;;2.42;;
57567;SDS011;43403;51.948;5.922;2022-12-20T06:27:13;6.53;;;2.47;;
57567;SDS011;43403;51.948;5.922;2022-12-20T06:29:39;4.60;;;2.28;;
57567;SDS011;43403;51.948;5.922;2022-12-20T06:32:06;4.28;;;2.50;;
57567;SDS011;43403;51.948;5.922;2022-12-20T06:34:32;4.57;;;2.47;;
57567;SDS011;43403;51.948;5.922;2022-12-20T06:36:59;3.53;;;2.03;;
57567;SDS011;43403;51.948;5.922;2022-12-20T06:39:25;7.97;;;2.35;;
57567;SDS011;43403;51.948;5.922;2022-12-20T06:41:52;3.33;;;1.80;;
57567;SDS011;43403;51.948;5.922;2022-12-20T06:44:18;5.93;;;2.75;;
57567;SDS011;43403;51.948;5.922;2022-12-20T06:46:44;5.10;;;2.60;;
57567;SDS011;43403;51.948;5.922;2022-12-20T06:49:11;4.20;;;1.88;;
57567;SDS011;43403;51.948;5.922;2022-12-20T06:51:37;4.30;;;1.90;;
57567;SDS011;43403;51.948;5.922;2022-12-20T06:54:04;3.97;;;2.00;;
57567;SDS011;43403;51.948;5.922;2022-12-20T06:56:30;4.43;;;2.17;;
57567;SDS011;43403;51.948;5.922;2022-12-20T06:59:06;5.40;;;1.92;;
57567;SDS011;43403;51.948;5.922;2022-12-20T07:01:32;2.60;;;1.92;;
57567;SDS011;43403;51.948;5.922;2022-12-20T07:03:58;5.55;;;2.15;;
57567;SDS011;43403;51.948;5.922;2022-12-20T07:06:25;6.53;;;1.95;;
57567;SDS011;43403;51.948;5.922;2022-12-20T07:11:20;4.30;;;2.28;;
57567;SDS011;43403;51.948;5.922;2022-12-20T07:13:47;3.67;;;2.00;;
57567;SDS011;43403;51.948;5.922;2022-12-20T07:16:15;3.97;;;1.90;;
57567;SDS011;43403;51.948;5.922;2022-12-20T07:18:41;3.60;;;2.17;;
57567;SDS011;43403;51.948;5.922;2022-12-20T07:21:08;4.25;;;2.20;;
57567;SDS011;43403;51.948;5.922;2022-12-20T07:23:34;4.55;;;1.90;;
57567;SDS011;43403;51.948;5.922;2022-12-20T07:26:02;4.03;;;2.35;;
57567;SDS011;43403;51.948;5.922;2022-12-20T07:28:29;5.25;;;2.20;;
57567;SDS011;43403;51.948;5.922;2022-12-20T07:30:58;3.28;;;2.38;;
57567;SDS011;43403;51.948;5.922;2022-12-20T07:33:26;3.67;;;2.00;;
57567;SDS011;43403;51.948;5.922;2022-12-20T07:35:59;4.18;;;1.90;;
57567;SDS011;43403;51.948;5.922;2022-12-20T07:38:26;6.65;;;2.60;;
57567;SDS011;43403;51.948;5.922;2022-12-20T07:40:53;4.05;;;1.98;;
57567;SDS011;43403;51.948;5.922;2022-12-20T07:43:19;4.43;;;2.33;;
57567;SDS011;43403;51.948;5.922;2022-12-20T07:45:46;4.95;;;1.92;;
57567;SDS011;43403;51.948;5.922;2022-12-20T07:48:12;4.65;;;2.10;;
57567;SDS011;43403;51.948;5.922;2022-12-20T07:50:46;3.38;;;1.92;;
57567;SDS011;43403;51.948;5.922;2022-12-20T07:53:13;3.53;;;1.80;;
57567;SDS011;43403;51.948;5.922;2022-12-20T07:55:39;3.72;;;1.75;;
57567;SDS011;43403;51.948;5.922;2022-12-20T07:58:07;4.35;;;2.20;;
57567;SDS011;43403;51.948;5.922;2022-12-20T08:00:36;4.10;;;1.80;;
57567;SDS011;43403;51.948;5.922;2022-12-20T08:03:05;5.07;;;1.77;;
57567;SDS011;43403;51.948;5.922;2022-12-20T08:05:36;4.30;;;2.03;;
57567;SDS011;43403;51.948;5.922;2022-12-20T08:08:06;4.85;;;1.80;;
57567;SDS011;43403;51.948;5.922;2022-12-20T08:10:33;3.05;;;1.88;;
57567;SDS011;43403;51.948;5.922;2022-12-20T08:13:02;2.67;;;1.88;;
57567;SDS011;43403;51.948;5.922;2022-12-20T08:15:30;4.32;;;1.70;;
57567;SDS011;43403;51.948;5.922;2022-12-20T08:17:57;4.93;;;1.75;;
57567;SDS011;43403;51.948;5.922;2022-12-20T08:20:23;5.68;;;2.15;;
57567;SDS011;43403;51.948;5.922;2022-12-20T08:22:50;3.03;;;1.70;;
57567;SDS011;43403;51.948;5.922;2022-12-20T08:25:16;4.00;;;1.83;;
57567;SDS011;43403;51.948;5.922;2022-12-20T08:27:43;3.92;;;2.25;;
57567;SDS011;43403;51.948;5.922;2022-12-20T08:30:10;6.45;;;2.10;;
57567;SDS011;43403;51.948;5.922;2022-12-20T08:32:37;4.30;;;1.83;;
57567;SDS011;43403;51.948;5.922;2022-12-20T08:35:04;10.70;;;2.83;;
57567;SDS011;43403;51.948;5.922;2022-12-20T08:37:31;4.70;;;2.17;;
57567;SDS011;43403;51.948;5.922;2022-12-20T08:39:58;5.30;;;1.83;;
57567;SDS011;43403;51.948;5.922;2022-12-20T08:42:26;4.87;;;2.10;;
57567;SDS011;43403;51.948;5.922;2022-12-20T08:44:54;4.97;;;1.92;;
57567;SDS011;43403;51.948;5.922;2022-12-20T08:47:20;2.58;;;1.73;;
57567;SDS011;43403;51.948;5.922;2022-12-20T08:49:47;2.75;;;1.90;;
57567;SDS011;43403;51.948;5.922;2022-12-20T08:52:13;2.40;;;1.55;;
57567;SDS011;43403;51.948;5.922;2022-12-20T08:54:40;2.83;;;2.10;;
57567;SDS011;43403;51.948;5.922;2022-12-20T08:57:09;4.75;;;2.05;;
57567;SDS011;43403;51.948;5.922;2022-12-20T08:59:35;7.93;;;2.33;;
57567;SDS011;43403;51.948;5.922;2022-12-20T09:02:02;3.85;;;1.90;;
57567;SDS011;43403;51.948;5.922;2022-12-20T09:04:29;5.18;;;2.17;;
57567;SDS011;43403;51.948;5.922;2022-12-20T09:06:55;5.13;;;2.15;;
57567;SDS011;43403;51.948;5.922;2022-12-20T09:09:22;5.97;;;2.10;;
57567;SDS011;43403;51.948;5.922;2022-12-20T09:11:48;3.70;;;2.17;;
57567;SDS011;43403;51.948;5.922;2022-12-20T09:14:14;5.97;;;2.20;;
57567;SDS011;43403;51.948;5.922;2022-12-20T09:16:41;5.88;;;2.55;;
57567;SDS011;43403;51.948;5.922;2022-12-20T09:19:09;4.68;;;2.22;;
57567;SDS011;43403;51.948;5.922;2022-12-20T09:21:37;6.47;;;1.98;;
57567;SDS011;43403;51.948;5.922;2022-12-20T09:24:04;5.03;;;2.33;;
57567;SDS011;43403;51.948;5.922;2022-12-20T09:26:31;4.78;;;2.15;;
57567;SDS011;43403;51.948;5.922;2022-12-20T09:29:00;4.75;;;2.42;;
57567;SDS011;43403;51.948;5.922;2022-12-20T09:31:27;4.85;;;2.30;;
57567;SDS011;43403;51.948;5.922;2022-12-20T09:33:54;5.75;;;2.30;;
57567;SDS011;43403;51.948;5.922;2022-12-20T09:36:23;6.15;;;2.38;;
57567;SDS011;43403;51.948;5.922;2022-12-20T09:38:51;3.38;;;2.08;;
57567;SDS011;43403;51.948;5.922;2022-12-20T09:41:39;5.45;;;2.00;;
57567;SDS011;43403;51.948;5.922;2022-12-20T09:44:13;6.10;;;2.33;;
57567;SDS011;43403;51.948;5.922;2022-12-20T09:46:44;7.13;;;2.22;;
57567;SDS011;43403;51.948;5.922;2022-12-20T09:49:14;6.50;;;2.20;;
57567;SDS011;43403;51.948;5.922;2022-12-20T09:54:36;4.68;;;2.08;;
57567;SDS011;43403;51.948;5.922;2022-12-20T10:00:14;5.53;;;2.40;;
57567;SDS011;43403;51.948;5.922;2022-12-20T10:02:43;5.40;;;2.53;;
57567;SDS011;43403;51.948;5.922;2022-12-20T10:05:48;4.57;;;2.53;;
57567;SDS011;43403;51.948;5.922;2022-12-20T10:08:23;3.25;;;1.90;;
57567;SDS011;43403;51.948;5.922;2022-12-20T10:16:33;3.05;;;1.90;;
57567;SDS011;43403;51.948;5.922;2022-12-20T10:24:44;5.35;;;2.40;;
57567;SDS011;43403;51.948;5.922;2022-12-20T10:27:19;3.67;;;1.98;;
57567;SDS011;43403;51.948;5.922;2022-12-20T10:29:47;5.20;;;2.30;;
57567;SDS011;43403;51.948;5.922;2022-12-20T10:32:17;5.60;;;2.67;;
57567;SDS011;43403;51.948;5.922;2022-12-20T10:37:35;5.28;;;2.55;;
57567;SDS011;43403;51.948;5.922;2022-12-20T10:40:01;4.40;;;2.70;;
57567;SDS011;43403;51.948;5.922;2022-12-20T10:42:35;6.18;;;3.08;;
57567;SDS011;43403;51.948;5.922;2022-12-20T10:45:09;5.03;;;3.00;;
57567;SDS011;43403;51.948;5.922;2022-12-20T10:48:00;4.43;;;2.60;;
57567;SDS011;43403;51.948;5.922;2022-12-20T10:50:28;6.13;;;2.80;;
57567;SDS011;43403;51.948;5.922;2022-12-20T10:53:03;5.20;;;2.53;;
57567;SDS011;43403;51.948;5.922;2022-12-20T10:55:44;4.05;;;2.70;;
57567;SDS011;43403;51.948;5.922;2022-12-20T10:58:12;6.25;;;2.85;;
57567;SDS011;43403;51.948;5.922;2022-12-20T11:00:41;6.40;;;2.83;;
57567;SDS011;43403;51.948;5.922;2022-12-20T11:03:13;5.80;;;3.17;;
57567;SDS011;43403;51.948;5.922;2022-12-20T11:06:19;6.57;;;2.70;;
57567;SDS011;43403;51.948;5.922;2022-12-20T11:08:41;5.53;;;2.58;;
57567;SDS011;43403;51.948;5.922;2022-12-20T11:11:22;6.32;;;2.95;;
57567;SDS011;43403;51.948;5.922;2022-12-20T11:13:50;6.15;;;2.38;;
57567;SDS011;43403;51.948;5.922;2022-12-20T11:16:35;8.00;;;2.80;;
57567;SDS011;43403;51.948;5.922;2022-12-20T11:21:41;6.45;;;3.00;;
57567;SDS011;43403;51.948;5.922;2022-12-20T11:24:19;5.65;;;2.80;;
57567;SDS011;43403;51.948;5.922;2022-12-20T11:35:18;8.80;;;2.80;;
57567;SDS011;43403;51.948;5.922;2022-12-20T11:40:52;4.22;;;2.50;;
57567;SDS011;43403;51.948;5.922;2022-12-20T11:43:35;6.35;;;2.70;;
57567;SDS011;43403;51.948;5.922;2022-12-20T11:46:32;6.22;;;2.83;;
57567;SDS011;43403;51.948;5.922;2022-12-20T11:52:25;5.90;;;2.90;;
57567;SDS011;43403;51.948;5.922;2022-12-20T11:57:56;6.47;;;3.20;;
57567;SDS011;43403;51.948;5.922;2022-12-20T12:00:51;5.90;;;2.58;;
57567;SDS011;43403;51.948;5.922;2022-12-20T12:05:58;5.68;;;2.78;;
57567;SDS011;43403;51.948;5.922;2022-12-20T12:08:51;6.78;;;3.53;;
57567;SDS011;43403;51.948;5.922;2022-12-20T12:11:25;3.88;;;2.58;;
57567;SDS011;43403;51.948;5.922;2022-12-20T12:14:21;7.50;;;2.70;;
57567;SDS011;43403;51.948;5.922;2022-12-20T12:16:56;6.55;;;2.97;;
57567;SDS011;43403;51.948;5.922;2022-12-20T12:19:28;5.75;;;2.88;;
57567;SDS011;43403;51.948;5.922;2022-12-20T12:22:04;4.53;;;2.65;;
57567;SDS011;43403;51.948;5.922;2022-12-20T12:24:42;5.35;;;2.70;;
57567;SDS011;43403;51.948;5.922;2022-12-20T12:27:19;6.72;;;2.85;;
57567;SDS011;43403;51.948;5.922;2022-12-20T12:29:48;6.50;;;3.33;;
57567;SDS011;43403;51.948;5.922;2022-12-20T12:32:22;8.35;;;3.38;;
57567;SDS011;43403;51.948;5.922;2022-12-20T12:51:31;9.43;;;3.55;;
57567;SDS011;43403;51.948;5.922;2022-12-20T12:56:51;7.03;;;3.30;;
57567;SDS011;43403;51.948;5.922;2022-12-20T12:59:22;6.10;;;2.90;;
57567;SDS011;43403;51.948;5.922;2022-12-20T13:20:21;5.40;;;3.33;;
57567;SDS011;43403;51.948;5.922;2022-12-20T13:25:45;5.90;;;3.40;;
57567;SDS011;43403;51.948;5.922;2022-12-20T13:33:20;6.50;;;3.88;;
57567;SDS011;43403;51.948;5.922;2022-12-20T13:35:54;7.95;;;4.13;;
57567;SDS011;43403;51.948;5.922;2022-12-20T13:41:50;9.18;;;3.92;;
57567;SDS011;43403;51.948;5.922;2022-12-20T13:44:41;9.15;;;3.83;;
57567;SDS011;43403;51.948;5.922;2022-12-20T13:47:21;6.38;;;3.75;;
57567;SDS011;43403;51.948;5.922;2022-12-20T13:49:55;6.15;;;3.92;;
57567;SDS011;43403;51.948;5.922;2022-12-20T13:57:27;5.70;;;3.25;;
57567;SDS011;43403;51.948;5.922;2022-12-20T14:00:04;7.63;;;3.67;;
57567;SDS011;43403;51.948;5.922;2022-12-20T14:02:39;8.90;;;4.00;;
57567;SDS011;43403;51.948;5.922;2022-12-20T14:05:13;5.97;;;4.05;;
57567;SDS011;43403;51.948;5.922;2022-12-20T14:07:44;7.15;;;4.38;;
57567;SDS011;43403;51.948;5.922;2022-12-20T14:10:17;6.82;;;4.15;;
57567;SDS011;43403;51.948;5.922;2022-12-20T14:12:48;8.48;;;4.97;;
57567;SDS011;43403;51.948;5.922;2022-12-20T14:17:54;8.55;;;4.80;;
57567;SDS011;43403;51.948;5.922;2022-12-20T14:20:22;5.75;;;3.67;;
57567;SDS011;43403;51.948;5.922;2022-12-20T14:22:54;5.43;;;4.25;;
57567;SDS011;43403;51.948;5.922;2022-12-20T14:25:40;7.22;;;4.32;;
57567;SDS011;43403;51.948;5.922;2022-12-20T14:28:15;5.25;;;3.90;;
57567;SDS011;43403;51.948;5.922;2022-12-20T14:30:52;6.75;;;4.47;;
57567;SDS011;43403;51.948;5.922;2022-12-20T14:33:23;7.43;;;4.80;;
57567;SDS011;43403;51.948;5.922;2022-12-20T14:35:50;6.32;;;4.47;;
57567;SDS011;43403;51.948;5.922;2022-12-20T14:38:21;7.25;;;4.47;;
57567;SDS011;43403;51.948;5.922;2022-12-20T14:40:49;6.18;;;4.32;;
57567;SDS011;43403;51.948;5.922;2022-12-20T14:43:26;7.75;;;4.00;;
57567;SDS011;43403;51.948;5.922;2022-12-20T14:46:14;7.47;;;4.57;;
57567;SDS011;43403;51.948;5.922;2022-12-20T14:48:44;6.13;;;3.92;;
57567;SDS011;43403;51.948;5.922;2022-12-20T14:51:12;7.72;;;4.28;;
57567;SDS011;43403;51.948;5.922;2022-12-20T14:53:45;7.10;;;4.43;;
57567;SDS011;43403;51.948;5.922;2022-12-20T14:56:15;6.50;;;4.03;;
57567;SDS011;43403;51.948;5.922;2022-12-20T14:58:44;5.38;;;4.07;;
57567;SDS011;43403;51.948;5.922;2022-12-20T15:06:49;6.63;;;3.97;;
57567;SDS011;43403;51.948;5.922;2022-12-20T15:09:17;6.05;;;4.65;;
57567;SDS011;43403;51.948;5.922;2022-12-20T15:11:45;5.40;;;3.85;;
57567;SDS011;43403;51.948;5.922;2022-12-20T15:14:19;6.63;;;3.87;;
57567;SDS011;43403;51.948;5.922;2022-12-20T15:16:49;5.35;;;3.63;;
57567;SDS011;43403;51.948;5.922;2022-12-20T15:19:16;5.85;;;3.90;;
57567;SDS011;43403;51.948;5.922;2022-12-20T15:21:42;5.45;;;3.88;;
57567;SDS011;43403;51.948;5.922;2022-12-20T15:24:11;6.13;;;4.43;;
57567;SDS011;43403;51.948;5.922;2022-12-20T15:26:40;6.65;;;4.60;;
57567;SDS011;43403;51.948;5.922;2022-12-20T15:29:17;5.22;;;3.67;;
57567;SDS011;43403;51.948;5.922;2022-12-20T15:31:46;5.20;;;4.05;;
57567;SDS011;43403;51.948;5.922;2022-12-20T15:34:25;5.93;;;4.15;;
57567;SDS011;43403;51.948;5.922;2022-12-20T15:36:56;5.82;;;3.92;;
57567;SDS011;43403;51.948;5.922;2022-12-20T15:39:25;6.18;;;3.97;;
57567;SDS011;43403;51.948;5.922;2022-12-20T15:41:52;6.07;;;4.18;;
57567;SDS011;43403;51.948;5.922;2022-12-20T15:44:20;5.72;;;4.45;;
57567;SDS011;43403;51.948;5.922;2022-12-20T15:46:49;6.32;;;4.50;;
57567;SDS011;43403;51.948;5.922;2022-12-20T15:49:17;7.38;;;4.60;;
57567;SDS011;43403;51.948;5.922;2022-12-20T15:51:46;6.82;;;4.80;;
57567;SDS011;43403;51.948;5.922;2022-12-20T15:54:25;6.82;;;5.28;;
57567;SDS011;43403;51.948;5.922;2022-12-20T15:56:54;8.63;;;4.90;;
57567;SDS011;43403;51.948;5.922;2022-12-20T15:59:21;9.35;;;5.15;;
57567;SDS011;43403;51.948;5.922;2022-12-20T16:02:19;12.98;;;7.60;;
57567;SDS011;43403;51.948;5.922;2022-12-20T16:04:47;10.30;;;6.28;;
57567;SDS011;43403;51.948;5.922;2022-12-20T16:07:13;9.30;;;6.82;;
57567;SDS011;43403;51.948;5.922;2022-12-20T16:09:40;14.63;;;7.25;;
57567;SDS011;43403;51.948;5.922;2022-12-20T16:12:13;8.40;;;6.18;;
57567;SDS011;43403;51.948;5.922;2022-12-20T16:14:43;10.25;;;6.93;;
57567;SDS011;43403;51.948;5.922;2022-12-20T16:17:11;11.80;;;7.22;;
57567;SDS011;43403;51.948;5.922;2022-12-20T16:19:41;8.23;;;6.15;;
57567;SDS011;43403;51.948;5.922;2022-12-20T16:22:14;7.15;;;6.30;;
57567;SDS011;43403;51.948;5.922;2022-12-20T16:24:43;8.30;;;6.45;;
57567;SDS011;43403;51.948;5.922;2022-12-20T16:27:10;9.93;;;7.35;;
57567;SDS011;43403;51.948;5.922;2022-12-20T16:29:37;8.65;;;7.75;;
57567;SDS011;43403;51.948;5.922;2022-12-20T16:32:08;10.05;;;8.02;;
57567;SDS011;43403;51.948;5.922;2022-12-20T16:34:39;9.30;;;6.95;;
57567;SDS011;43403;51.948;5.922;2022-12-20T16:37:05;8.35;;;6.88;;
57567;SDS011;43403;51.948;5.922;2022-12-20T16:39:32;9.82;;;7.30;;
57567;SDS011;43403;51.948;5.922;2022-12-20T16:41:58;13.15;;;7.68;;
57567;SDS011;43403;51.948;5.922;2022-12-20T16:44:26;9.98;;;7.85;;
57567;SDS011;43403;51.948;5.922;2022-12-20T16:46:53;9.30;;;7.80;;
57567;SDS011;43403;51.948;5.922;2022-12-20T16:49:20;12.07;;;7.70;;
57567;SDS011;43403;51.948;5.922;2022-12-20T16:51:47;9.63;;;7.97;;
57567;SDS011;43403;51.948;5.922;2022-12-20T16:54:15;11.35;;;7.45;;
57567;SDS011;43403;51.948;5.922;2022-12-20T16:56:49;9.43;;;7.63;;
57567;SDS011;43403;51.948;5.922;2022-12-20T16:59:22;11.82;;;7.40;;
57567;SDS011;43403;51.948;5.922;2022-12-20T17:01:53;9.33;;;7.57;;
57567;SDS011;43403;51.948;5.922;2022-12-20T17:04:21;9.43;;;8.10;;
57567;SDS011;43403;51.948;5.922;2022-12-20T17:06:49;10.00;;;7.67;;
57567;SDS011;43403;51.948;5.922;2022-12-20T17:09:16;12.77;;;7.50;;
57567;SDS011;43403;51.948;5.922;2022-12-20T17:11:43;11.70;;;8.00;;
57567;SDS011;43403;51.948;5.922;2022-12-20T17:14:11;11.57;;;7.70;;